Aviation Digital Data Service (ADDS)

Output produced by METARs form (0828 UTC 24 September 2017)
found at http://aviationweather.gov/adds/metars/
 
KDAN 240520Z 2406/2506 00000KT P6SM FEW200 
     FM241100 VRB03KT 5SM BR FEW003 
     FM241200 VRB03KT P6SM SKC